sensor_id;sensor_type;location;lat;lon;timestamp;temperature;humidity
37446;DHT22;23307;51.136;14.942;2024-01-30T00:01:04;5.30;99.90
37446;DHT22;23307;51.136;14.942;2024-01-30T00:03:30;5.30;99.90
37446;DHT22;23307;51.136;14.942;2024-01-30T00:05:55;5.20;99.90
37446;DHT22;23307;51.136;14.942;2024-01-30T00:08:21;5.20;99.90
37446;DHT22;23307;51.136;14.942;2024-01-30T00:10:46;5.30;99.90
37446;DHT22;23307;51.136;14.942;2024-01-30T00:13:11;5.30;99.90
37446;DHT22;23307;51.136;14.942;2024-01-30T00:15:39;5.20;99.90
37446;DHT22;23307;51.136;14.942;2024-01-30T00:18:04;5.20;99.90
37446;DHT22;23307;51.136;14.942;2024-01-30T00:20:30;5.20;99.90
37446;DHT22;23307;51.136;14.942;2024-01-30T00:22:55;5.20;99.90
37446;DHT22;23307;51.136;14.942;2024-01-30T00:25:21;5.20;99.90
37446;DHT22;23307;51.136;14.942;2024-01-30T00:27:46;5.20;99.90
37446;DHT22;23307;51.136;14.942;2024-01-30T00:30:12;5.20;99.90
37446;DHT22;23307;51.136;14.942;2024-01-30T00:32:37;5.20;99.90
37446;DHT22;23307;51.136;14.942;2024-01-30T00:35:03;5.20;99.90
37446;DHT22;23307;51.136;14.942;2024-01-30T00:37:29;5.20;99.90
37446;DHT22;23307;51.136;14.942;2024-01-30T00:39:54;5.10;99.90
37446;DHT22;23307;51.136;14.942;2024-01-30T00:42:20;5.10;99.90
37446;DHT22;23307;51.136;14.942;2024-01-30T00:44:46;5.10;99.90
37446;DHT22;23307;51.136;14.942;2024-01-30T00:47:12;5.10;99.90
37446;DHT22;23307;51.136;14.942;2024-01-30T00:49:37;5.10;99.90
37446;DHT22;23307;51.136;14.942;2024-01-30T00:52:03;5.10;99.90
37446;DHT22;23307;51.136;14.942;2024-01-30T00:54:29;5.10;99.90
37446;DHT22;23307;51.136;14.942;2024-01-30T00:56:54;5.10;99.90
37446;DHT22;23307;51.136;14.942;2024-01-30T00:59:20;5.10;99.90
37446;DHT22;23307;51.136;14.942;2024-01-30T01:01:45;5.10;99.90
37446;DHT22;23307;51.136;14.942;2024-01-30T01:04:11;5.00;99.90
37446;DHT22;23307;51.136;14.942;2024-01-30T01:06:36;5.00;99.90
37446;DHT22;23307;51.136;14.942;2024-01-30T01:09:02;5.00;99.90
37446;DHT22;23307;51.136;14.942;2024-01-30T01:11:29;5.00;99.90
37446;DHT22;23307;51.136;14.942;2024-01-30T01:13:54;5.00;99.90
37446;DHT22;23307;51.136;14.942;2024-01-30T01:16:19;5.00;99.90
37446;DHT22;23307;51.136;14.942;2024-01-30T01:18:45;5.00;99.90
37446;DHT22;23307;51.136;14.942;2024-01-30T01:21:11;5.00;99.90
37446;DHT22;23307;51.136;14.942;2024-01-30T01:23:36;5.00;99.90
37446;DHT22;23307;51.136;14.942;2024-01-30T01:26:02;5.00;99.90
37446;DHT22;23307;51.136;14.942;2024-01-30T01:28:27;5.00;99.90
37446;DHT22;23307;51.136;14.942;2024-01-30T01:30:53;5.00;99.90
37446;DHT22;23307;51.136;14.942;2024-01-30T01:33:18;5.00;99.90
37446;DHT22;23307;51.136;14.942;2024-01-30T01:35:44;5.00;99.90
37446;DHT22;23307;51.136;14.942;2024-01-30T01:38:10;5.00;99.90
37446;DHT22;23307;51.136;14.942;2024-01-30T01:40:35;5.00;99.90
37446;DHT22;23307;51.136;14.942;2024-01-30T01:43:03;5.10;99.90
37446;DHT22;23307;51.136;14.942;2024-01-30T01:45:29;5.10;99.90
37446;DHT22;23307;51.136;14.942;2024-01-30T01:47:54;5.00;99.90
37446;DHT22;23307;51.136;14.942;2024-01-30T01:50:23;5.00;99.90
37446;DHT22;23307;51.136;14.942;2024-01-30T01:52:50;5.00;99.90
37446;DHT22;23307;51.136;14.942;2024-01-30T01:55:16;5.00;99.90
37446;DHT22;23307;51.136;14.942;2024-01-30T01:57:44;5.00;99.90
37446;DHT22;23307;51.136;14.942;2024-01-30T02:00:10;5.00;99.90
37446;DHT22;23307;51.136;14.942;2024-01-30T02:02:37;5.00;99.90
37446;DHT22;23307;51.136;14.942;2024-01-30T02:05:04;5.00;99.90
37446;DHT22;23307;51.136;14.942;2024-01-30T02:07:30;5.00;99.90
37446;DHT22;23307;51.136;14.942;2024-01-30T02:09:56;5.00;99.90
37446;DHT22;23307;51.136;14.942;2024-01-30T02:12:21;5.00;99.90
37446;DHT22;23307;51.136;14.942;2024-01-30T02:14:48;5.00;99.90
37446;DHT22;23307;51.136;14.942;2024-01-30T02:17:15;5.00;99.90
37446;DHT22;23307;51.136;14.942;2024-01-30T02:19:41;5.00;99.90
37446;DHT22;23307;51.136;14.942;2024-01-30T02:22:07;5.00;99.90
37446;DHT22;23307;51.136;14.942;2024-01-30T02:24:33;5.00;99.90
37446;DHT22;23307;51.136;14.942;2024-01-30T02:26:58;5.00;99.90
37446;DHT22;23307;51.136;14.942;2024-01-30T02:29:24;5.00;99.90
37446;DHT22;23307;51.136;14.942;2024-01-30T02:31:49;5.00;99.90
37446;DHT22;23307;51.136;14.942;2024-01-30T02:34:16;4.90;99.90
37446;DHT22;23307;51.136;14.942;2024-01-30T02:36:44;4.90;99.90
37446;DHT22;23307;51.136;14.942;2024-01-30T02:39:10;4.90;99.90
37446;DHT22;23307;51.136;14.942;2024-01-30T02:41:36;4.90;99.90
37446;DHT22;23307;51.136;14.942;2024-01-30T02:44:02;4.90;99.90
37446;DHT22;23307;51.136;14.942;2024-01-30T02:46:28;4.90;99.90
37446;DHT22;23307;51.136;14.942;2024-01-30T02:48:53;4.90;99.90
37446;DHT22;23307;51.136;14.942;2024-01-30T02:51:19;4.90;99.90
37446;DHT22;23307;51.136;14.942;2024-01-30T02:53:44;4.90;99.90
37446;DHT22;23307;51.136;14.942;2024-01-30T02:56:10;4.90;99.90
37446;DHT22;23307;51.136;14.942;2024-01-30T02:58:36;4.80;99.90
37446;DHT22;23307;51.136;14.942;2024-01-30T03:01:02;4.80;99.90
37446;DHT22;23307;51.136;14.942;2024-01-30T03:03:28;4.80;99.90
37446;DHT22;23307;51.136;14.942;2024-01-30T03:05:54;4.80;99.90
37446;DHT22;23307;51.136;14.942;2024-01-30T03:08:19;4.80;99.90
37446;DHT22;23307;51.136;14.942;2024-01-30T03:10:45;4.80;99.90
37446;DHT22;23307;51.136;14.942;2024-01-30T03:13:10;4.80;99.90
37446;DHT22;23307;51.136;14.942;2024-01-30T03:15:36;4.80;99.90
37446;DHT22;23307;51.136;14.942;2024-01-30T03:18:02;4.80;99.90
37446;DHT22;23307;51.136;14.942;2024-01-30T03:20:29;4.70;99.90
37446;DHT22;23307;51.136;14.942;2024-01-30T03:22:55;4.80;99.90
37446;DHT22;23307;51.136;14.942;2024-01-30T03:25:21;4.80;99.90
37446;DHT22;23307;51.136;14.942;2024-01-30T03:27:47;4.80;99.90
37446;DHT22;23307;51.136;14.942;2024-01-30T03:30:12;4.70;99.90
37446;DHT22;23307;51.136;14.942;2024-01-30T03:32:38;4.70;99.90
37446;DHT22;23307;51.136;14.942;2024-01-30T03:35:04;4.80;99.90
37446;DHT22;23307;51.136;14.942;2024-01-30T03:37:29;4.80;99.90
37446;DHT22;23307;51.136;14.942;2024-01-30T03:39:55;4.80;99.90
37446;DHT22;23307;51.136;14.942;2024-01-30T03:42:21;4.80;99.90
37446;DHT22;23307;51.136;14.942;2024-01-30T03:44:47;4.80;99.90
37446;DHT22;23307;51.136;14.942;2024-01-30T03:47:13;4.80;99.90
37446;DHT22;23307;51.136;14.942;2024-01-30T03:49:38;4.80;99.90
37446;DHT22;23307;51.136;14.942;2024-01-30T03:52:04;4.80;99.90
37446;DHT22;23307;51.136;14.942;2024-01-30T03:54:29;4.80;99.90
37446;DHT22;23307;51.136;14.942;2024-01-30T03:56:55;4.80;99.90
37446;DHT22;23307;51.136;14.942;2024-01-30T03:59:20;4.80;99.90
37446;DHT22;23307;51.136;14.942;2024-01-30T04:01:50;4.80;99.90
37446;DHT22;23307;51.136;14.942;2024-01-30T04:04:16;4.80;99.90
37446;DHT22;23307;51.136;14.942;2024-01-30T04:06:42;4.80;99.90
37446;DHT22;23307;51.136;14.942;2024-01-30T04:09:07;4.80;99.90
37446;DHT22;23307;51.136;14.942;2024-01-30T04:11:33;4.90;99.90
37446;DHT22;23307;51.136;14.942;2024-01-30T04:13:58;4.90;99.90
37446;DHT22;23307;51.136;14.942;2024-01-30T04:16:24;4.90;99.90
37446;DHT22;23307;51.136;14.942;2024-01-30T04:18:49;4.90;99.90
37446;DHT22;23307;51.136;14.942;2024-01-30T04:21:15;4.90;99.90
37446;DHT22;23307;51.136;14.942;2024-01-30T04:23:41;4.90;99.90
37446;DHT22;23307;51.136;14.942;2024-01-30T04:26:06;4.90;99.90
37446;DHT22;23307;51.136;14.942;2024-01-30T04:28:32;4.90;99.90
37446;DHT22;23307;51.136;14.942;2024-01-30T04:30:57;4.90;99.90
37446;DHT22;23307;51.136;14.942;2024-01-30T04:33:23;4.90;99.90
37446;DHT22;23307;51.136;14.942;2024-01-30T04:35:48;4.90;99.90
37446;DHT22;23307;51.136;14.942;2024-01-30T04:38:14;4.90;99.90
37446;DHT22;23307;51.136;14.942;2024-01-30T04:40:40;4.90;99.90
37446;DHT22;23307;51.136;14.942;2024-01-30T04:43:05;4.90;99.90
37446;DHT22;23307;51.136;14.942;2024-01-30T04:45:31;4.90;99.90
37446;DHT22;23307;51.136;14.942;2024-01-30T04:47:56;4.90;99.90
37446;DHT22;23307;51.136;14.942;2024-01-30T04:50:23;4.90;99.90
37446;DHT22;23307;51.136;14.942;2024-01-30T04:52:48;4.90;99.90
37446;DHT22;23307;51.136;14.942;2024-01-30T04:55:14;4.90;99.90
37446;DHT22;23307;51.136;14.942;2024-01-30T04:57:40;4.90;99.90
37446;DHT22;23307;51.136;14.942;2024-01-30T05:00:06;4.90;99.90
37446;DHT22;23307;51.136;14.942;2024-01-30T05:02:32;4.90;99.90
37446;DHT22;23307;51.136;14.942;2024-01-30T05:04:57;4.90;99.90
37446;DHT22;23307;51.136;14.942;2024-01-30T05:07:24;4.90;99.90
37446;DHT22;23307;51.136;14.942;2024-01-30T05:09:50;4.90;99.90
37446;DHT22;23307;51.136;14.942;2024-01-30T05:12:15;4.80;99.90
37446;DHT22;23307;51.136;14.942;2024-01-30T05:14:41;4.90;99.90
37446;DHT22;23307;51.136;14.942;2024-01-30T05:17:06;4.90;99.90
37446;DHT22;23307;51.136;14.942;2024-01-30T05:19:33;4.80;99.90
37446;DHT22;23307;51.136;14.942;2024-01-30T05:21:59;4.80;99.90
37446;DHT22;23307;51.136;14.942;2024-01-30T05:24:24;4.80;99.90
37446;DHT22;23307;51.136;14.942;2024-01-30T05:26:50;4.80;99.90
37446;DHT22;23307;51.136;14.942;2024-01-30T05:29:16;4.80;99.90
37446;DHT22;23307;51.136;14.942;2024-01-30T05:31:42;4.80;99.90
37446;DHT22;23307;51.136;14.942;2024-01-30T05:34:07;4.80;99.90
37446;DHT22;23307;51.136;14.942;2024-01-30T05:36:34;4.80;99.90
37446;DHT22;23307;51.136;14.942;2024-01-30T05:39:00;4.90;99.90
37446;DHT22;23307;51.136;14.942;2024-01-30T05:41:25;4.80;99.90
37446;DHT22;23307;51.136;14.942;2024-01-30T05:43:51;4.80;99.90
37446;DHT22;23307;51.136;14.942;2024-01-30T05:46:16;4.80;99.90
37446;DHT22;23307;51.136;14.942;2024-01-30T05:48:42;4.80;99.90
37446;DHT22;23307;51.136;14.942;2024-01-30T05:51:07;4.70;99.90
37446;DHT22;23307;51.136;14.942;2024-01-30T05:53:33;4.70;99.90
37446;DHT22;23307;51.136;14.942;2024-01-30T05:56:03;4.70;99.90
37446;DHT22;23307;51.136;14.942;2024-01-30T05:58:29;4.70;99.90
37446;DHT22;23307;51.136;14.942;2024-01-30T06:00:54;4.70;99.90
37446;DHT22;23307;51.136;14.942;2024-01-30T06:03:20;4.70;99.90
37446;DHT22;23307;51.136;14.942;2024-01-30T06:05:46;4.70;99.90
37446;DHT22;23307;51.136;14.942;2024-01-30T06:08:11;4.60;99.90
37446;DHT22;23307;51.136;14.942;2024-01-30T06:10:37;4.70;99.90
37446;DHT22;23307;51.136;14.942;2024-01-30T06:13:02;4.70;99.90
37446;DHT22;23307;51.136;14.942;2024-01-30T06:15:28;4.70;99.90
37446;DHT22;23307;51.136;14.942;2024-01-30T06:17:55;4.70;99.90
37446;DHT22;23307;51.136;14.942;2024-01-30T06:20:20;4.60;99.90
37446;DHT22;23307;51.136;14.942;2024-01-30T06:22:46;4.60;99.90
37446;DHT22;23307;51.136;14.942;2024-01-30T06:25:11;4.60;99.90
37446;DHT22;23307;51.136;14.942;2024-01-30T06:27:37;4.60;99.90
37446;DHT22;23307;51.136;14.942;2024-01-30T06:30:04;4.60;99.90
37446;DHT22;23307;51.136;14.942;2024-01-30T06:32:30;4.60;99.90
37446;DHT22;23307;51.136;14.942;2024-01-30T06:35:00;4.70;99.90
37446;DHT22;23307;51.136;14.942;2024-01-30T06:37:25;4.60;99.90
37446;DHT22;23307;51.136;14.942;2024-01-30T06:39:50;4.60;99.90
37446;DHT22;23307;51.136;14.942;2024-01-30T06:42:17;4.70;99.90
37446;DHT22;23307;51.136;14.942;2024-01-30T06:44:43;4.70;99.90
37446;DHT22;23307;51.136;14.942;2024-01-30T06:47:08;4.60;99.90
37446;DHT22;23307;51.136;14.942;2024-01-30T06:49:34;4.60;99.90
37446;DHT22;23307;51.136;14.942;2024-01-30T06:52:00;4.70;99.90
37446;DHT22;23307;51.136;14.942;2024-01-30T06:54:25;4.70;99.90
37446;DHT22;23307;51.136;14.942;2024-01-30T06:56:51;4.70;99.90
37446;DHT22;23307;51.136;14.942;2024-01-30T06:59:16;4.70;99.90
37446;DHT22;23307;51.136;14.942;2024-01-30T07:01:41;4.70;99.90
37446;DHT22;23307;51.136;14.942;2024-01-30T07:04:07;4.70;99.90
37446;DHT22;23307;51.136;14.942;2024-01-30T07:06:32;4.70;99.90
37446;DHT22;23307;51.136;14.942;2024-01-30T07:08:58;4.80;99.90
37446;DHT22;23307;51.136;14.942;2024-01-30T07:11:23;4.80;99.90
37446;DHT22;23307;51.136;14.942;2024-01-30T07:13:51;4.80;99.90
37446;DHT22;23307;51.136;14.942;2024-01-30T07:16:16;4.80;99.90
37446;DHT22;23307;51.136;14.942;2024-01-30T07:18:43;4.80;99.90
37446;DHT22;23307;51.136;14.942;2024-01-30T07:21:09;4.80;99.90
37446;DHT22;23307;51.136;14.942;2024-01-30T07:23:34;4.90;99.90
37446;DHT22;23307;51.136;14.942;2024-01-30T07:26:01;4.90;99.90
37446;DHT22;23307;51.136;14.942;2024-01-30T07:28:27;4.90;99.90
37446;DHT22;23307;51.136;14.942;2024-01-30T07:30:52;4.90;99.90
37446;DHT22;23307;51.136;14.942;2024-01-30T07:33:18;4.90;99.90
37446;DHT22;23307;51.136;14.942;2024-01-30T07:35:45;4.90;99.90
37446;DHT22;23307;51.136;14.942;2024-01-30T07:38:11;4.90;99.90
37446;DHT22;23307;51.136;14.942;2024-01-30T07:40:37;4.90;99.90
37446;DHT22;23307;51.136;14.942;2024-01-30T07:43:02;5.00;99.90
37446;DHT22;23307;51.136;14.942;2024-01-30T07:45:28;5.00;99.90
37446;DHT22;23307;51.136;14.942;2024-01-30T07:47:57;5.10;99.90
37446;DHT22;23307;51.136;14.942;2024-01-30T07:50:23;5.10;99.90
37446;DHT22;23307;51.136;14.942;2024-01-30T07:52:48;5.10;99.90
37446;DHT22;23307;51.136;14.942;2024-01-30T07:55:16;5.20;99.90
37446;DHT22;23307;51.136;14.942;2024-01-30T07:57:42;5.20;99.90
37446;DHT22;23307;51.136;14.942;2024-01-30T08:00:08;5.20;99.90
37446;DHT22;23307;51.136;14.942;2024-01-30T08:02:34;5.30;99.90
37446;DHT22;23307;51.136;14.942;2024-01-30T08:04:59;5.40;99.90
37446;DHT22;23307;51.136;14.942;2024-01-30T08:07:25;5.40;99.90
37446;DHT22;23307;51.136;14.942;2024-01-30T08:09:50;5.40;99.90
37446;DHT22;23307;51.136;14.942;2024-01-30T08:12:16;5.40;99.90
37446;DHT22;23307;51.136;14.942;2024-01-30T08:14:41;5.50;99.90
37446;DHT22;23307;51.136;14.942;2024-01-30T08:17:07;5.50;99.90
37446;DHT22;23307;51.136;14.942;2024-01-30T08:19:33;5.50;99.90
37446;DHT22;23307;51.136;14.942;2024-01-30T08:21:58;5.60;99.90
37446;DHT22;23307;51.136;14.942;2024-01-30T08:24:24;5.60;99.90
37446;DHT22;23307;51.136;14.942;2024-01-30T08:26:49;5.60;99.90
37446;DHT22;23307;51.136;14.942;2024-01-30T08:29:15;5.70;99.90
37446;DHT22;23307;51.136;14.942;2024-01-30T08:31:40;5.70;99.90
37446;DHT22;23307;51.136;14.942;2024-01-30T08:34:06;5.70;99.90
37446;DHT22;23307;51.136;14.942;2024-01-30T08:36:32;5.80;99.90
37446;DHT22;23307;51.136;14.942;2024-01-30T08:38:57;5.80;99.90
37446;DHT22;23307;51.136;14.942;2024-01-30T08:41:23;5.90;99.90
37446;DHT22;23307;51.136;14.942;2024-01-30T08:43:49;6.00;99.90
37446;DHT22;23307;51.136;14.942;2024-01-30T08:46:17;6.00;99.90
37446;DHT22;23307;51.136;14.942;2024-01-30T08:48:43;6.00;99.90
37446;DHT22;23307;51.136;14.942;2024-01-30T08:51:09;6.10;99.90
37446;DHT22;23307;51.136;14.942;2024-01-30T08:53:35;6.10;99.90
37446;DHT22;23307;51.136;14.942;2024-01-30T08:56:02;6.10;99.90
37446;DHT22;23307;51.136;14.942;2024-01-30T08:58:27;6.20;99.90
37446;DHT22;23307;51.136;14.942;2024-01-30T09:00:53;6.20;99.90
37446;DHT22;23307;51.136;14.942;2024-01-30T09:03:18;6.20;99.90
37446;DHT22;23307;51.136;14.942;2024-01-30T09:05:44;6.30;99.90
37446;DHT22;23307;51.136;14.942;2024-01-30T09:08:10;6.30;99.90
37446;DHT22;23307;51.136;14.942;2024-01-30T09:10:35;6.30;99.90
37446;DHT22;23307;51.136;14.942;2024-01-30T09:13:01;6.30;99.90
37446;DHT22;23307;51.136;14.942;2024-01-30T09:15:26;6.40;99.90
37446;DHT22;23307;51.136;14.942;2024-01-30T09:17:52;6.40;99.90
37446;DHT22;23307;51.136;14.942;2024-01-30T09:20:17;6.50;99.90
37446;DHT22;23307;51.136;14.942;2024-01-30T09:22:43;6.50;99.90
37446;DHT22;23307;51.136;14.942;2024-01-30T09:25:09;6.60;99.90
37446;DHT22;23307;51.136;14.942;2024-01-30T09:27:35;6.60;99.90
37446;DHT22;23307;51.136;14.942;2024-01-30T09:30:00;6.60;99.90
37446;DHT22;23307;51.136;14.942;2024-01-30T09:32:26;6.60;99.90
37446;DHT22;23307;51.136;14.942;2024-01-30T09:34:51;6.70;99.90
37446;DHT22;23307;51.136;14.942;2024-01-30T09:37:17;6.80;99.90
37446;DHT22;23307;51.136;14.942;2024-01-30T09:39:43;6.80;99.90
37446;DHT22;23307;51.136;14.942;2024-01-30T09:44:44;6.80;99.90
37446;DHT22;23307;51.136;14.942;2024-01-30T09:47:10;6.90;99.90
37446;DHT22;23307;51.136;14.942;2024-01-30T09:49:36;6.90;99.90
37446;DHT22;23307;51.136;14.942;2024-01-30T09:52:04;6.90;99.90
37446;DHT22;23307;51.136;14.942;2024-01-30T09:54:31;7.00;99.90
37446;DHT22;23307;51.136;14.942;2024-01-30T09:56:57;7.00;99.90
37446;DHT22;23307;51.136;14.942;2024-01-30T09:59:23;7.10;99.90
37446;DHT22;23307;51.136;14.942;2024-01-30T10:01:52;7.10;99.90
37446;DHT22;23307;51.136;14.942;2024-01-30T10:04:18;7.20;99.90
37446;DHT22;23307;51.136;14.942;2024-01-30T10:06:44;7.20;99.90
37446;DHT22;23307;51.136;14.942;2024-01-30T10:09:09;7.30;99.90
37446;DHT22;23307;51.136;14.942;2024-01-30T10:11:36;7.30;99.90
37446;DHT22;23307;51.136;14.942;2024-01-30T10:14:01;7.40;99.90
37446;DHT22;23307;51.136;14.942;2024-01-30T10:16:27;7.30;99.90
37446;DHT22;23307;51.136;14.942;2024-01-30T10:18:53;7.30;99.90
37446;DHT22;23307;51.136;14.942;2024-01-30T10:21:18;7.30;99.90
37446;DHT22;23307;51.136;14.942;2024-01-30T10:23:44;7.40;99.90
37446;DHT22;23307;51.136;14.942;2024-01-30T10:26:10;7.40;99.90
37446;DHT22;23307;51.136;14.942;2024-01-30T10:28:36;7.50;99.90
37446;DHT22;23307;51.136;14.942;2024-01-30T10:31:02;7.50;99.90
37446;DHT22;23307;51.136;14.942;2024-01-30T10:33:29;7.60;99.90
37446;DHT22;23307;51.136;14.942;2024-01-30T10:36:03;7.60;99.90
37446;DHT22;23307;51.136;14.942;2024-01-30T10:38:30;7.60;99.90
37446;DHT22;23307;51.136;14.942;2024-01-30T10:41:00;7.70;99.90
37446;DHT22;23307;51.136;14.942;2024-01-30T10:43:31;7.70;99.90
37446;DHT22;23307;51.136;14.942;2024-01-30T10:46:20;7.70;99.90
37446;DHT22;23307;51.136;14.942;2024-01-30T10:48:51;7.80;99.90
37446;DHT22;23307;51.136;14.942;2024-01-30T10:51:22;7.90;99.90
37446;DHT22;23307;51.136;14.942;2024-01-30T10:53:49;7.90;99.90
37446;DHT22;23307;51.136;14.942;2024-01-30T10:56:16;8.00;99.90
37446;DHT22;23307;51.136;14.942;2024-01-30T10:58:41;8.00;99.90
37446;DHT22;23307;51.136;14.942;2024-01-30T11:01:07;8.10;99.90
37446;DHT22;23307;51.136;14.942;2024-01-30T11:03:34;8.10;99.90
37446;DHT22;23307;51.136;14.942;2024-01-30T11:06:02;8.10;99.90
37446;DHT22;23307;51.136;14.942;2024-01-30T11:08:28;8.20;99.90
37446;DHT22;23307;51.136;14.942;2024-01-30T11:10:57;8.30;99.90
37446;DHT22;23307;51.136;14.942;2024-01-30T11:13:29;8.30;99.90
37446;DHT22;23307;51.136;14.942;2024-01-30T11:15:55;8.40;99.90
37446;DHT22;23307;51.136;14.942;2024-01-30T11:18:29;8.40;99.90
37446;DHT22;23307;51.136;14.942;2024-01-30T11:20:59;8.40;99.90
37446;DHT22;23307;51.136;14.942;2024-01-30T11:23:30;8.40;99.90
37446;DHT22;23307;51.136;14.942;2024-01-30T11:25:56;8.50;99.90
37446;DHT22;23307;51.136;14.942;2024-01-30T11:28:23;8.50;99.90
37446;DHT22;23307;51.136;14.942;2024-01-30T11:30:48;8.50;99.90
37446;DHT22;23307;51.136;14.942;2024-01-30T11:33:27;8.50;99.90
37446;DHT22;23307;51.136;14.942;2024-01-30T11:35:53;8.50;99.90
37446;DHT22;23307;51.136;14.942;2024-01-30T11:38:19;8.50;99.90
37446;DHT22;23307;51.136;14.942;2024-01-30T11:40:45;8.50;99.90
37446;DHT22;23307;51.136;14.942;2024-01-30T11:43:11;8.60;99.90
37446;DHT22;23307;51.136;14.942;2024-01-30T11:45:37;8.50;99.90
37446;DHT22;23307;51.136;14.942;2024-01-30T11:48:03;8.60;99.90
37446;DHT22;23307;51.136;14.942;2024-01-30T11:50:30;8.70;99.90
37446;DHT22;23307;51.136;14.942;2024-01-30T11:52:56;8.70;99.90
37446;DHT22;23307;51.136;14.942;2024-01-30T11:55:23;8.70;99.90
37446;DHT22;23307;51.136;14.942;2024-01-30T11:57:49;8.80;99.90
37446;DHT22;23307;51.136;14.942;2024-01-30T12:00:15;8.80;99.90
37446;DHT22;23307;51.136;14.942;2024-01-30T12:02:42;8.80;99.90
37446;DHT22;23307;51.136;14.942;2024-01-30T12:05:08;8.90;99.90
37446;DHT22;23307;51.136;14.942;2024-01-30T12:07:35;8.90;99.90
37446;DHT22;23307;51.136;14.942;2024-01-30T12:10:00;8.90;99.90
37446;DHT22;23307;51.136;14.942;2024-01-30T12:12:27;8.90;99.90
37446;DHT22;23307;51.136;14.942;2024-01-30T12:14:53;9.00;99.90
37446;DHT22;23307;51.136;14.942;2024-01-30T12:17:29;9.00;99.90
37446;DHT22;23307;51.136;14.942;2024-01-30T12:20:11;8.90;99.90
37446;DHT22;23307;51.136;14.942;2024-01-30T12:22:41;9.00;99.90
37446;DHT22;23307;51.136;14.942;2024-01-30T12:25:10;9.10;99.90
37446;DHT22;23307;51.136;14.942;2024-01-30T12:27:37;9.10;99.90
37446;DHT22;23307;51.136;14.942;2024-01-30T12:30:09;9.10;99.90
37446;DHT22;23307;51.136;14.942;2024-01-30T12:32:39;9.30;99.90
37446;DHT22;23307;51.136;14.942;2024-01-30T12:35:15;9.30;99.90
37446;DHT22;23307;51.136;14.942;2024-01-30T12:37:42;9.30;99.90
37446;DHT22;23307;51.136;14.942;2024-01-30T12:40:09;9.30;99.90
37446;DHT22;23307;51.136;14.942;2024-01-30T12:42:35;9.40;99.90
37446;DHT22;23307;51.136;14.942;2024-01-30T12:45:03;9.40;99.90
37446;DHT22;23307;51.136;14.942;2024-01-30T12:47:29;9.40;99.90
37446;DHT22;23307;51.136;14.942;2024-01-30T12:49:54;9.40;99.90
37446;DHT22;23307;51.136;14.942;2024-01-30T12:52:21;9.50;99.90
37446;DHT22;23307;51.136;14.942;2024-01-30T12:54:47;9.50;99.90
37446;DHT22;23307;51.136;14.942;2024-01-30T12:57:13;9.50;99.90
37446;DHT22;23307;51.136;14.942;2024-01-30T12:59:39;9.60;99.90
37446;DHT22;23307;51.136;14.942;2024-01-30T13:02:05;9.60;99.90
37446;DHT22;23307;51.136;14.942;2024-01-30T13:04:31;9.50;99.90
37446;DHT22;23307;51.136;14.942;2024-01-30T13:06:57;9.50;99.90
37446;DHT22;23307;51.136;14.942;2024-01-30T13:09:23;9.40;99.90
37446;DHT22;23307;51.136;14.942;2024-01-30T13:11:49;9.40;99.90
37446;DHT22;23307;51.136;14.942;2024-01-30T13:14:15;9.40;99.90
37446;DHT22;23307;51.136;14.942;2024-01-30T13:16:40;9.40;99.90
37446;DHT22;23307;51.136;14.942;2024-01-30T13:19:06;9.30;99.90
37446;DHT22;23307;51.136;14.942;2024-01-30T13:21:31;9.30;99.90
37446;DHT22;23307;51.136;14.942;2024-01-30T13:23:57;9.10;99.90
37446;DHT22;23307;51.136;14.942;2024-01-30T13:26:23;9.00;99.90
37446;DHT22;23307;51.136;14.942;2024-01-30T13:28:48;8.90;99.90
37446;DHT22;23307;51.136;14.942;2024-01-30T13:31:15;8.90;99.90
37446;DHT22;23307;51.136;14.942;2024-01-30T13:33:40;8.90;99.90
37446;DHT22;23307;51.136;14.942;2024-01-30T13:36:07;8.90;99.90
37446;DHT22;23307;51.136;14.942;2024-01-30T13:38:33;8.90;99.90
37446;DHT22;23307;51.136;14.942;2024-01-30T13:40:59;9.00;99.90
37446;DHT22;23307;51.136;14.942;2024-01-30T13:43:24;8.90;99.90
37446;DHT22;23307;51.136;14.942;2024-01-30T13:45:50;8.90;99.90
37446;DHT22;23307;51.136;14.942;2024-01-30T13:48:15;8.90;99.90
37446;DHT22;23307;51.136;14.942;2024-01-30T13:50:41;8.90;99.90
37446;DHT22;23307;51.136;14.942;2024-01-30T13:53:07;8.90;99.90
37446;DHT22;23307;51.136;14.942;2024-01-30T13:55:32;8.90;99.90
37446;DHT22;23307;51.136;14.942;2024-01-30T13:57:58;8.90;99.90
37446;DHT22;23307;51.136;14.942;2024-01-30T14:00:23;8.80;99.90
37446;DHT22;23307;51.136;14.942;2024-01-30T14:02:51;8.60;99.90
37446;DHT22;23307;51.136;14.942;2024-01-30T14:05:16;8.40;99.90
37446;DHT22;23307;51.136;14.942;2024-01-30T14:07:43;8.30;99.90
37446;DHT22;23307;51.136;14.942;2024-01-30T14:10:09;8.20;99.90
37446;DHT22;23307;51.136;14.942;2024-01-30T14:12:36;8.10;99.90
37446;DHT22;23307;51.136;14.942;2024-01-30T14:15:02;8.00;99.90
37446;DHT22;23307;51.136;14.942;2024-01-30T14:17:27;7.90;99.90
37446;DHT22;23307;51.136;14.942;2024-01-30T14:19:53;7.80;99.90
37446;DHT22;23307;51.136;14.942;2024-01-30T14:22:18;7.70;99.90
37446;DHT22;23307;51.136;14.942;2024-01-30T14:24:44;7.60;99.90
37446;DHT22;23307;51.136;14.942;2024-01-30T14:27:10;7.60;99.90
37446;DHT22;23307;51.136;14.942;2024-01-30T14:29:35;7.50;99.90
37446;DHT22;23307;51.136;14.942;2024-01-30T14:32:01;7.40;99.90
37446;DHT22;23307;51.136;14.942;2024-01-30T14:34:27;7.40;99.90
37446;DHT22;23307;51.136;14.942;2024-01-30T14:36:52;7.30;99.90
37446;DHT22;23307;51.136;14.942;2024-01-30T14:39:18;7.30;99.90
37446;DHT22;23307;51.136;14.942;2024-01-30T14:41:44;7.30;99.90
37446;DHT22;23307;51.136;14.942;2024-01-30T14:44:09;7.30;99.90
37446;DHT22;23307;51.136;14.942;2024-01-30T14:46:36;7.20;99.90
37446;DHT22;23307;51.136;14.942;2024-01-30T14:49:03;7.20;99.90
37446;DHT22;23307;51.136;14.942;2024-01-30T14:51:31;7.20;99.90
37446;DHT22;23307;51.136;14.942;2024-01-30T14:53:56;7.10;99.90
37446;DHT22;23307;51.136;14.942;2024-01-30T14:56:22;7.10;99.90
37446;DHT22;23307;51.136;14.942;2024-01-30T14:58:48;7.10;99.90
37446;DHT22;23307;51.136;14.942;2024-01-30T15:01:13;7.00;99.90
37446;DHT22;23307;51.136;14.942;2024-01-30T15:03:39;7.00;99.90
37446;DHT22;23307;51.136;14.942;2024-01-30T15:06:05;6.90;99.90
37446;DHT22;23307;51.136;14.942;2024-01-30T15:08:31;6.90;99.90
37446;DHT22;23307;51.136;14.942;2024-01-30T15:10:57;6.80;99.90
37446;DHT22;23307;51.136;14.942;2024-01-30T15:13:23;6.70;99.90
37446;DHT22;23307;51.136;14.942;2024-01-30T15:15:49;6.70;99.90
37446;DHT22;23307;51.136;14.942;2024-01-30T15:18:14;6.60;99.90
37446;DHT22;23307;51.136;14.942;2024-01-30T15:20:40;6.60;99.90
37446;DHT22;23307;51.136;14.942;2024-01-30T15:23:05;6.60;99.90
37446;DHT22;23307;51.136;14.942;2024-01-30T15:25:31;6.50;99.90